Red Rock, Oklahoma
Current Conditions -  °F | °C
As of 7:53 PM on Thursday 20 Nov 2014 (Local Time) from KPNC Reporting Station
Clear Clear  
Wind Chill: 37°   Ceiling: Unl
Heat Index: 43°   Visibility: 10mi
Dew Point: 26°   Wind: 10mph
Humidity: 51%   Direction: 70°ENE
Pressure: 30.11"   Gusts: NA
Location:  36.46°N, 97.18°W
Report Text: KPNC 210153Z AUTO 07009KT 10SM CLR 06/M03 A3011 RMK AO2 SLP200 T00611033
Loading
Personal Weather Stations






























Interactive Weather Map New forecast layout! Learn more

10-Day Weather Forecast

Advertisements
Track Severe Weather on mobile